sensor_id;sensor_type;location;lat;lon;timestamp;temperature;humidity
44647;DHT22;56315;-33.902;151.160;2023-04-07T00:01:44;18.20;99.90
44647;DHT22;56315;-33.902;151.160;2023-04-07T00:04:12;18.10;99.90
44647;DHT22;56315;-33.902;151.160;2023-04-07T00:06:39;18.10;99.90
44647;DHT22;56315;-33.902;151.160;2023-04-07T00:09:09;18.00;99.90
44647;DHT22;56315;-33.902;151.160;2023-04-07T00:11:37;18.00;99.90
44647;DHT22;56315;-33.902;151.160;2023-04-07T00:14:04;18.00;99.90
44647;DHT22;56315;-33.902;151.160;2023-04-07T00:16:31;17.90;99.90
44647;DHT22;56315;-33.902;151.160;2023-04-07T00:18:59;17.90;99.90
44647;DHT22;56315;-33.902;151.160;2023-04-07T00:21:26;17.80;99.90
44647;DHT22;56315;-33.902;151.160;2023-04-07T00:23:53;17.80;99.90
44647;DHT22;56315;-33.902;151.160;2023-04-07T00:26:20;17.70;99.90
44647;DHT22;56315;-33.902;151.160;2023-04-07T00:28:48;17.70;99.90
44647;DHT22;56315;-33.902;151.160;2023-04-07T00:31:15;17.70;99.90
44647;DHT22;56315;-33.902;151.160;2023-04-07T00:33:42;17.70;99.90
44647;DHT22;56315;-33.902;151.160;2023-04-07T00:36:09;17.60;99.90
44647;DHT22;56315;-33.902;151.160;2023-04-07T00:38:37;17.60;99.90
44647;DHT22;56315;-33.902;151.160;2023-04-07T00:41:04;17.70;99.90
44647;DHT22;56315;-33.902;151.160;2023-04-07T00:43:31;17.60;99.90
44647;DHT22;56315;-33.902;151.160;2023-04-07T00:45:59;17.60;99.90
44647;DHT22;56315;-33.902;151.160;2023-04-07T00:48:26;17.70;99.90
44647;DHT22;56315;-33.902;151.160;2023-04-07T00:50:54;17.60;99.90
44647;DHT22;56315;-33.902;151.160;2023-04-07T00:53:21;17.70;99.90
44647;DHT22;56315;-33.902;151.160;2023-04-07T00:55:49;17.80;99.90
44647;DHT22;56315;-33.902;151.160;2023-04-07T00:58:16;18.00;99.90
44647;DHT22;56315;-33.902;151.160;2023-04-07T01:00:58;18.10;99.90
44647;DHT22;56315;-33.902;151.160;2023-04-07T01:03:39;18.30;99.90
44647;DHT22;56315;-33.902;151.160;2023-04-07T01:06:13;18.40;99.90
44647;DHT22;56315;-33.902;151.160;2023-04-07T01:08:47;18.40;99.90
44647;DHT22;56315;-33.902;151.160;2023-04-07T01:11:35;18.40;99.90
44647;DHT22;56315;-33.902;151.160;2023-04-07T01:14:03;18.60;99.90
44647;DHT22;56315;-33.902;151.160;2023-04-07T01:16:37;18.70;99.90
44647;DHT22;56315;-33.902;151.160;2023-04-07T01:19:37;18.90;99.90
44647;DHT22;56315;-33.902;151.160;2023-04-07T01:22:20;19.10;99.90
44647;DHT22;56315;-33.902;151.160;2023-04-07T01:30:30;20.40;99.90
44647;DHT22;56315;-33.902;151.160;2023-04-07T01:32:58;20.90;99.90
44647;DHT22;56315;-33.902;151.160;2023-04-07T01:35:28;21.50;99.90
44647;DHT22;56315;-33.902;151.160;2023-04-07T01:37:56;22.00;99.90
44647;DHT22;56315;-33.902;151.160;2023-04-07T01:40:26;22.20;99.90
44647;DHT22;56315;-33.902;151.160;2023-04-07T01:42:55;22.30;99.90
44647;DHT22;56315;-33.902;151.160;2023-04-07T01:45:23;22.20;99.90
44647;DHT22;56315;-33.902;151.160;2023-04-07T01:47:53;22.20;99.90
44647;DHT22;56315;-33.902;151.160;2023-04-07T01:50:21;22.50;99.90
44647;DHT22;56315;-33.902;151.160;2023-04-07T01:52:49;23.00;99.90
44647;DHT22;56315;-33.902;151.160;2023-04-07T01:55:16;23.30;99.90
44647;DHT22;56315;-33.902;151.160;2023-04-07T01:57:43;23.30;99.90
44647;DHT22;56315;-33.902;151.160;2023-04-07T02:00:11;23.10;99.90
44647;DHT22;56315;-33.902;151.160;2023-04-07T02:02:43;22.90;99.90
44647;DHT22;56315;-33.902;151.160;2023-04-07T02:05:14;22.80;99.90
44647;DHT22;56315;-33.902;151.160;2023-04-07T02:08:04;22.60;99.90
44647;DHT22;56315;-33.902;151.160;2023-04-07T02:10:36;22.50;99.90
44647;DHT22;56315;-33.902;151.160;2023-04-07T02:13:06;22.70;99.90
44647;DHT22;56315;-33.902;151.160;2023-04-07T02:15:43;23.20;99.90
44647;DHT22;56315;-33.902;151.160;2023-04-07T02:18:13;23.60;99.90
44647;DHT22;56315;-33.902;151.160;2023-04-07T02:20:43;23.80;99.90
44647;DHT22;56315;-33.902;151.160;2023-04-07T02:23:12;23.90;99.90
44647;DHT22;56315;-33.902;151.160;2023-04-07T02:25:40;24.00;99.90
44647;DHT22;56315;-33.902;151.160;2023-04-07T02:28:07;23.90;99.90
44647;DHT22;56315;-33.902;151.160;2023-04-07T02:30:35;24.00;99.90
44647;DHT22;56315;-33.902;151.160;2023-04-07T02:33:02;24.10;99.90
44647;DHT22;56315;-33.902;151.160;2023-04-07T02:35:29;24.10;99.90
44647;DHT22;56315;-33.902;151.160;2023-04-07T02:37:57;24.00;99.90
44647;DHT22;56315;-33.902;151.160;2023-04-07T02:40:24;24.00;99.90
44647;DHT22;56315;-33.902;151.160;2023-04-07T02:42:54;23.90;99.90
44647;DHT22;56315;-33.902;151.160;2023-04-07T02:45:22;23.90;99.90
44647;DHT22;56315;-33.902;151.160;2023-04-07T02:47:49;23.90;99.90
44647;DHT22;56315;-33.902;151.160;2023-04-07T02:50:16;24.30;99.90
44647;DHT22;56315;-33.902;151.160;2023-04-07T02:52:44;24.70;99.90
44647;DHT22;56315;-33.902;151.160;2023-04-07T02:55:11;25.10;99.90
44647;DHT22;56315;-33.902;151.160;2023-04-07T02:57:38;25.40;99.90
44647;DHT22;56315;-33.902;151.160;2023-04-07T03:00:06;25.60;99.90
44647;DHT22;56315;-33.902;151.160;2023-04-07T03:02:33;25.50;99.90
44647;DHT22;56315;-33.902;151.160;2023-04-07T03:05:01;25.40;99.90
44647;DHT22;56315;-33.902;151.160;2023-04-07T03:07:29;25.50;99.90
44647;DHT22;56315;-33.902;151.160;2023-04-07T03:09:57;25.70;99.90
44647;DHT22;56315;-33.902;151.160;2023-04-07T03:12:24;25.70;99.90
44647;DHT22;56315;-33.902;151.160;2023-04-07T03:14:52;25.90;99.90
44647;DHT22;56315;-33.902;151.160;2023-04-07T03:17:19;26.10;99.90
44647;DHT22;56315;-33.902;151.160;2023-04-07T03:19:46;26.10;99.90
44647;DHT22;56315;-33.902;151.160;2023-04-07T03:22:14;26.30;99.90
44647;DHT22;56315;-33.902;151.160;2023-04-07T03:24:41;26.40;99.90
44647;DHT22;56315;-33.902;151.160;2023-04-07T03:27:08;26.30;99.90
44647;DHT22;56315;-33.902;151.160;2023-04-07T03:29:35;26.10;99.90
44647;DHT22;56315;-33.902;151.160;2023-04-07T03:32:03;25.70;99.90
44647;DHT22;56315;-33.902;151.160;2023-04-07T03:34:30;25.40;99.90
44647;DHT22;56315;-33.902;151.160;2023-04-07T03:36:57;25.20;99.90
44647;DHT22;56315;-33.902;151.160;2023-04-07T03:39:25;25.00;99.90
44647;DHT22;56315;-33.902;151.160;2023-04-07T03:41:52;24.90;99.90
44647;DHT22;56315;-33.902;151.160;2023-04-07T03:44:19;24.70;99.90
44647;DHT22;56315;-33.902;151.160;2023-04-07T03:46:46;24.70;99.90
44647;DHT22;56315;-33.902;151.160;2023-04-07T03:49:15;24.70;99.90
44647;DHT22;56315;-33.902;151.160;2023-04-07T03:51:43;24.70;99.90
44647;DHT22;56315;-33.902;151.160;2023-04-07T03:54:10;24.60;99.90
44647;DHT22;56315;-33.902;151.160;2023-04-07T03:56:37;24.70;99.90
44647;DHT22;56315;-33.902;151.160;2023-04-07T03:59:05;24.70;99.90
44647;DHT22;56315;-33.902;151.160;2023-04-07T04:01:32;24.70;99.90
44647;DHT22;56315;-33.902;151.160;2023-04-07T04:03:59;24.70;99.90
44647;DHT22;56315;-33.902;151.160;2023-04-07T04:06:26;24.70;99.90
44647;DHT22;56315;-33.902;151.160;2023-04-07T04:08:53;24.70;99.90
44647;DHT22;56315;-33.902;151.160;2023-04-07T04:11:21;24.70;99.90
44647;DHT22;56315;-33.902;151.160;2023-04-07T04:13:48;24.60;99.90
44647;DHT22;56315;-33.902;151.160;2023-04-07T04:16:16;24.60;99.90
44647;DHT22;56315;-33.902;151.160;2023-04-07T04:18:43;24.50;99.90
44647;DHT22;56315;-33.902;151.160;2023-04-07T04:21:10;24.60;99.90
44647;DHT22;56315;-33.902;151.160;2023-04-07T04:23:37;24.50;99.90
44647;DHT22;56315;-33.902;151.160;2023-04-07T04:26:05;24.50;99.90
44647;DHT22;56315;-33.902;151.160;2023-04-07T04:28:32;24.50;99.90
44647;DHT22;56315;-33.902;151.160;2023-04-07T04:30:59;24.60;99.90
44647;DHT22;56315;-33.902;151.160;2023-04-07T04:33:26;24.60;99.90
44647;DHT22;56315;-33.902;151.160;2023-04-07T04:35:54;24.60;99.90
44647;DHT22;56315;-33.902;151.160;2023-04-07T04:38:21;24.70;99.90
44647;DHT22;56315;-33.902;151.160;2023-04-07T04:40:48;24.70;99.90
44647;DHT22;56315;-33.902;151.160;2023-04-07T04:43:15;24.60;99.90
44647;DHT22;56315;-33.902;151.160;2023-04-07T04:45:43;24.50;99.90
44647;DHT22;56315;-33.902;151.160;2023-04-07T04:48:10;24.50;99.90
44647;DHT22;56315;-33.902;151.160;2023-04-07T04:50:37;24.40;99.90
44647;DHT22;56315;-33.902;151.160;2023-04-07T04:53:04;24.20;99.90
44647;DHT22;56315;-33.902;151.160;2023-04-07T04:55:32;24.20;99.90
44647;DHT22;56315;-33.902;151.160;2023-04-07T04:57:59;24.20;99.90
44647;DHT22;56315;-33.902;151.160;2023-04-07T05:00:26;24.20;99.90
44647;DHT22;56315;-33.902;151.160;2023-04-07T05:02:54;24.30;99.90
44647;DHT22;56315;-33.902;151.160;2023-04-07T05:05:22;24.30;99.90
44647;DHT22;56315;-33.902;151.160;2023-04-07T05:07:49;24.30;99.90
44647;DHT22;56315;-33.902;151.160;2023-04-07T05:10:16;24.30;99.90
44647;DHT22;56315;-33.902;151.160;2023-04-07T05:12:43;24.30;99.90
44647;DHT22;56315;-33.902;151.160;2023-04-07T05:15:11;24.20;99.90
44647;DHT22;56315;-33.902;151.160;2023-04-07T05:17:40;24.20;99.90
44647;DHT22;56315;-33.902;151.160;2023-04-07T05:20:09;24.20;99.90
44647;DHT22;56315;-33.902;151.160;2023-04-07T05:22:36;24.20;99.90
44647;DHT22;56315;-33.902;151.160;2023-04-07T05:25:04;24.30;99.90
44647;DHT22;56315;-33.902;151.160;2023-04-07T05:27:32;24.30;99.90
44647;DHT22;56315;-33.902;151.160;2023-04-07T05:29:59;24.30;99.90
44647;DHT22;56315;-33.902;151.160;2023-04-07T05:32:27;24.40;99.90
44647;DHT22;56315;-33.902;151.160;2023-04-07T05:34:55;24.40;99.90
44647;DHT22;56315;-33.902;151.160;2023-04-07T05:37:22;24.40;99.90
44647;DHT22;56315;-33.902;151.160;2023-04-07T05:39:49;24.30;99.90
44647;DHT22;56315;-33.902;151.160;2023-04-07T05:42:16;24.20;99.90
44647;DHT22;56315;-33.902;151.160;2023-04-07T05:44:43;24.10;99.90
44647;DHT22;56315;-33.902;151.160;2023-04-07T05:47:11;24.00;99.90
44647;DHT22;56315;-33.902;151.160;2023-04-07T05:49:38;23.90;99.90
44647;DHT22;56315;-33.902;151.160;2023-04-07T05:52:12;23.90;99.90
44647;DHT22;56315;-33.902;151.160;2023-04-07T05:54:39;23.80;99.90
44647;DHT22;56315;-33.902;151.160;2023-04-07T05:57:07;23.70;99.90
44647;DHT22;56315;-33.902;151.160;2023-04-07T05:59:35;23.60;99.90
44647;DHT22;56315;-33.902;151.160;2023-04-07T06:02:02;23.50;99.90
44647;DHT22;56315;-33.902;151.160;2023-04-07T06:04:30;23.40;99.90
44647;DHT22;56315;-33.902;151.160;2023-04-07T06:06:58;23.40;99.90
44647;DHT22;56315;-33.902;151.160;2023-04-07T06:09:25;23.30;99.90
44647;DHT22;56315;-33.902;151.160;2023-04-07T06:11:52;23.30;99.90
44647;DHT22;56315;-33.902;151.160;2023-04-07T06:14:20;23.20;99.90
44647;DHT22;56315;-33.902;151.160;2023-04-07T06:16:47;23.10;99.90
44647;DHT22;56315;-33.902;151.160;2023-04-07T06:19:14;23.00;99.90
44647;DHT22;56315;-33.902;151.160;2023-04-07T06:21:42;22.90;99.90
44647;DHT22;56315;-33.902;151.160;2023-04-07T06:24:09;22.80;99.90
44647;DHT22;56315;-33.902;151.160;2023-04-07T06:26:36;22.70;99.90
44647;DHT22;56315;-33.902;151.160;2023-04-07T06:29:05;22.60;99.90
44647;DHT22;56315;-33.902;151.160;2023-04-07T06:31:32;22.60;99.90
44647;DHT22;56315;-33.902;151.160;2023-04-07T06:34:00;22.50;99.90
44647;DHT22;56315;-33.902;151.160;2023-04-07T06:36:27;22.50;99.90
44647;DHT22;56315;-33.902;151.160;2023-04-07T06:38:55;22.50;99.90
44647;DHT22;56315;-33.902;151.160;2023-04-07T06:41:22;22.50;99.90
44647;DHT22;56315;-33.902;151.160;2023-04-07T06:43:49;22.40;99.90
44647;DHT22;56315;-33.902;151.160;2023-04-07T06:46:17;22.50;99.90
44647;DHT22;56315;-33.902;151.160;2023-04-07T06:48:45;22.50;99.90
44647;DHT22;56315;-33.902;151.160;2023-04-07T06:51:13;22.40;99.90
44647;DHT22;56315;-33.902;151.160;2023-04-07T06:53:40;22.40;99.90
44647;DHT22;56315;-33.902;151.160;2023-04-07T06:56:11;22.40;99.90
44647;DHT22;56315;-33.902;151.160;2023-04-07T06:58:38;22.40;99.90
44647;DHT22;56315;-33.902;151.160;2023-04-07T07:01:06;22.40;99.90
44647;DHT22;56315;-33.902;151.160;2023-04-07T07:03:33;22.50;99.90
44647;DHT22;56315;-33.902;151.160;2023-04-07T07:06:01;22.60;99.90
44647;DHT22;56315;-33.902;151.160;2023-04-07T07:08:28;22.70;99.90
44647;DHT22;56315;-33.902;151.160;2023-04-07T07:10:56;22.70;99.90
44647;DHT22;56315;-33.902;151.160;2023-04-07T07:13:25;22.80;99.90
44647;DHT22;56315;-33.902;151.160;2023-04-07T07:15:53;22.80;99.90
44647;DHT22;56315;-33.902;151.160;2023-04-07T07:18:20;22.80;99.90
44647;DHT22;56315;-33.902;151.160;2023-04-07T07:20:47;22.80;99.90
44647;DHT22;56315;-33.902;151.160;2023-04-07T07:23:16;22.80;99.90
44647;DHT22;56315;-33.902;151.160;2023-04-07T07:25:43;22.80;99.90
44647;DHT22;56315;-33.902;151.160;2023-04-07T07:28:10;22.80;99.90
44647;DHT22;56315;-33.902;151.160;2023-04-07T07:30:39;22.80;99.90
44647;DHT22;56315;-33.902;151.160;2023-04-07T07:33:09;22.80;99.90
44647;DHT22;56315;-33.902;151.160;2023-04-07T07:35:36;22.70;99.90
44647;DHT22;56315;-33.902;151.160;2023-04-07T07:38:03;22.70;99.90
44647;DHT22;56315;-33.902;151.160;2023-04-07T07:40:30;22.70;99.90
44647;DHT22;56315;-33.902;151.160;2023-04-07T07:42:58;22.60;99.90
44647;DHT22;56315;-33.902;151.160;2023-04-07T07:45:26;22.70;99.90
44647;DHT22;56315;-33.902;151.160;2023-04-07T07:47:53;22.60;99.90
44647;DHT22;56315;-33.902;151.160;2023-04-07T07:50:20;22.60;99.90
44647;DHT22;56315;-33.902;151.160;2023-04-07T07:52:48;22.60;99.90
44647;DHT22;56315;-33.902;151.160;2023-04-07T07:55:15;22.50;99.90
44647;DHT22;56315;-33.902;151.160;2023-04-07T07:57:42;22.50;99.90
44647;DHT22;56315;-33.902;151.160;2023-04-07T08:00:10;22.40;99.90
44647;DHT22;56315;-33.902;151.160;2023-04-07T08:02:37;22.40;99.90
44647;DHT22;56315;-33.902;151.160;2023-04-07T08:05:05;22.40;99.90
44647;DHT22;56315;-33.902;151.160;2023-04-07T08:07:32;22.30;99.90
44647;DHT22;56315;-33.902;151.160;2023-04-07T08:10:00;22.30;99.90
44647;DHT22;56315;-33.902;151.160;2023-04-07T08:12:27;22.20;99.90
44647;DHT22;56315;-33.902;151.160;2023-04-07T08:14:54;22.20;99.90
44647;DHT22;56315;-33.902;151.160;2023-04-07T08:17:21;22.10;99.90
44647;DHT22;56315;-33.902;151.160;2023-04-07T08:19:52;22.10;99.90
44647;DHT22;56315;-33.902;151.160;2023-04-07T08:22:19;22.10;99.90
44647;DHT22;56315;-33.902;151.160;2023-04-07T08:24:46;22.10;99.90
44647;DHT22;56315;-33.902;151.160;2023-04-07T08:27:14;22.00;99.90
44647;DHT22;56315;-33.902;151.160;2023-04-07T08:29:41;22.00;99.90
44647;DHT22;56315;-33.902;151.160;2023-04-07T08:32:08;21.90;99.90
44647;DHT22;56315;-33.902;151.160;2023-04-07T08:34:36;21.90;99.90
44647;DHT22;56315;-33.902;151.160;2023-04-07T08:37:03;21.80;99.90
44647;DHT22;56315;-33.902;151.160;2023-04-07T08:39:30;21.70;99.90
44647;DHT22;56315;-33.902;151.160;2023-04-07T08:41:58;21.80;99.90
44647;DHT22;56315;-33.902;151.160;2023-04-07T08:44:27;21.60;99.90
44647;DHT22;56315;-33.902;151.160;2023-04-07T08:46:57;21.60;99.90
44647;DHT22;56315;-33.902;151.160;2023-04-07T08:49:27;21.60;99.90
44647;DHT22;56315;-33.902;151.160;2023-04-07T08:51:55;21.60;99.90
44647;DHT22;56315;-33.902;151.160;2023-04-07T08:54:25;21.50;99.90
44647;DHT22;56315;-33.902;151.160;2023-04-07T08:56:55;21.50;99.90
44647;DHT22;56315;-33.902;151.160;2023-04-07T08:59:26;21.50;99.90
44647;DHT22;56315;-33.902;151.160;2023-04-07T09:01:59;21.50;99.90
44647;DHT22;56315;-33.902;151.160;2023-04-07T09:04:28;21.50;99.90
44647;DHT22;56315;-33.902;151.160;2023-04-07T09:06:55;21.40;99.90
44647;DHT22;56315;-33.902;151.160;2023-04-07T09:09:22;21.40;99.90
44647;DHT22;56315;-33.902;151.160;2023-04-07T09:11:51;21.40;99.90
44647;DHT22;56315;-33.902;151.160;2023-04-07T09:14:19;21.40;99.90
44647;DHT22;56315;-33.902;151.160;2023-04-07T09:16:47;21.30;99.90
44647;DHT22;56315;-33.902;151.160;2023-04-07T09:19:14;21.30;99.90
44647;DHT22;56315;-33.902;151.160;2023-04-07T09:21:50;21.30;99.90
44647;DHT22;56315;-33.902;151.160;2023-04-07T09:24:27;21.20;99.90
44647;DHT22;56315;-33.902;151.160;2023-04-07T09:29:39;21.10;99.90
44647;DHT22;56315;-33.902;151.160;2023-04-07T09:32:06;21.10;99.90
44647;DHT22;56315;-33.902;151.160;2023-04-07T09:34:36;21.10;99.90
44647;DHT22;56315;-33.902;151.160;2023-04-07T09:37:08;21.10;99.90
44647;DHT22;56315;-33.902;151.160;2023-04-07T09:39:51;21.10;99.90
44647;DHT22;56315;-33.902;151.160;2023-04-07T09:42:20;21.10;99.90
44647;DHT22;56315;-33.902;151.160;2023-04-07T09:44:47;21.20;99.90
44647;DHT22;56315;-33.902;151.160;2023-04-07T09:47:15;21.20;99.90
44647;DHT22;56315;-33.902;151.160;2023-04-07T09:49:51;21.30;99.90
44647;DHT22;56315;-33.902;151.160;2023-04-07T09:52:24;21.30;99.90
44647;DHT22;56315;-33.902;151.160;2023-04-07T09:54:52;21.40;99.90
44647;DHT22;56315;-33.902;151.160;2023-04-07T09:57:22;21.40;99.90
44647;DHT22;56315;-33.902;151.160;2023-04-07T09:59:50;21.40;99.90
44647;DHT22;56315;-33.902;151.160;2023-04-07T10:02:17;21.40;99.90
44647;DHT22;56315;-33.902;151.160;2023-04-07T10:04:45;21.40;99.90
44647;DHT22;56315;-33.902;151.160;2023-04-07T10:07:12;21.40;99.90
44647;DHT22;56315;-33.902;151.160;2023-04-07T10:09:41;21.50;99.90
44647;DHT22;56315;-33.902;151.160;2023-04-07T10:12:08;21.50;99.90
44647;DHT22;56315;-33.902;151.160;2023-04-07T10:14:36;21.50;99.90
44647;DHT22;56315;-33.902;151.160;2023-04-07T10:17:03;21.50;99.90
44647;DHT22;56315;-33.902;151.160;2023-04-07T10:19:34;21.50;99.90
44647;DHT22;56315;-33.902;151.160;2023-04-07T10:22:02;21.50;99.90
44647;DHT22;56315;-33.902;151.160;2023-04-07T10:25:20;21.50;99.90
44647;DHT22;56315;-33.902;151.160;2023-04-07T10:27:53;21.50;99.90
44647;DHT22;56315;-33.902;151.160;2023-04-07T10:30:30;21.50;99.90
44647;DHT22;56315;-33.902;151.160;2023-04-07T10:32:58;21.50;99.90
44647;DHT22;56315;-33.902;151.160;2023-04-07T10:35:25;21.40;99.90
44647;DHT22;56315;-33.902;151.160;2023-04-07T10:38:12;21.20;99.90
44647;DHT22;56315;-33.902;151.160;2023-04-07T10:40:42;20.90;99.90
44647;DHT22;56315;-33.902;151.160;2023-04-07T10:43:10;20.60;99.90
44647;DHT22;56315;-33.902;151.160;2023-04-07T10:48:17;20.20;99.90
44647;DHT22;56315;-33.902;151.160;2023-04-07T10:50:45;20.00;99.90
44647;DHT22;56315;-33.902;151.160;2023-04-07T10:53:16;19.90;99.90
44647;DHT22;56315;-33.902;151.160;2023-04-07T10:55:44;19.80;99.90
44647;DHT22;56315;-33.902;151.160;2023-04-07T11:03:34;19.30;99.90
44647;DHT22;56315;-33.902;151.160;2023-04-07T11:06:04;19.20;99.90
44647;DHT22;56315;-33.902;151.160;2023-04-07T11:11:05;18.80;99.90
44647;DHT22;56315;-33.902;151.160;2023-04-07T11:13:43;18.70;99.90
44647;DHT22;56315;-33.902;151.160;2023-04-07T11:16:12;18.40;99.90
44647;DHT22;56315;-33.902;151.160;2023-04-07T11:18:40;18.20;99.90
44647;DHT22;56315;-33.902;151.160;2023-04-07T11:21:08;18.10;99.90
44647;DHT22;56315;-33.902;151.160;2023-04-07T11:23:40;18.10;99.90
44647;DHT22;56315;-33.902;151.160;2023-04-07T11:26:09;18.10;99.90
44647;DHT22;56315;-33.902;151.160;2023-04-07T11:28:50;18.00;99.90
44647;DHT22;56315;-33.902;151.160;2023-04-07T11:31:25;18.00;99.90
44647;DHT22;56315;-33.902;151.160;2023-04-07T11:33:57;17.90;99.90
44647;DHT22;56315;-33.902;151.160;2023-04-07T11:36:33;17.90;99.90
44647;DHT22;56315;-33.902;151.160;2023-04-07T11:39:01;17.80;99.90
44647;DHT22;56315;-33.902;151.160;2023-04-07T11:41:31;17.80;99.90
44647;DHT22;56315;-33.902;151.160;2023-04-07T11:44:09;17.80;99.90
44647;DHT22;56315;-33.902;151.160;2023-04-07T11:46:56;17.80;99.90
44647;DHT22;56315;-33.902;151.160;2023-04-07T11:49:25;17.80;99.90
44647;DHT22;56315;-33.902;151.160;2023-04-07T11:52:06;17.80;99.90
44647;DHT22;56315;-33.902;151.160;2023-04-07T11:54:44;17.80;99.90
44647;DHT22;56315;-33.902;151.160;2023-04-07T11:57:28;17.70;99.90
44647;DHT22;56315;-33.902;151.160;2023-04-07T12:00:07;17.70;99.90
44647;DHT22;56315;-33.902;151.160;2023-04-07T12:02:35;17.60;99.90
44647;DHT22;56315;-33.902;151.160;2023-04-07T12:05:03;17.60;99.90
44647;DHT22;56315;-33.902;151.160;2023-04-07T12:07:30;17.60;99.90
44647;DHT22;56315;-33.902;151.160;2023-04-07T12:09:57;17.50;99.90
44647;DHT22;56315;-33.902;151.160;2023-04-07T12:12:26;17.40;99.90
44647;DHT22;56315;-33.902;151.160;2023-04-07T12:14:54;17.40;99.90
44647;DHT22;56315;-33.902;151.160;2023-04-07T12:17:23;17.30;99.90
44647;DHT22;56315;-33.902;151.160;2023-04-07T12:19:51;17.30;99.90
44647;DHT22;56315;-33.902;151.160;2023-04-07T12:22:18;17.20;99.90
44647;DHT22;56315;-33.902;151.160;2023-04-07T12:24:46;17.20;99.90
44647;DHT22;56315;-33.902;151.160;2023-04-07T12:27:13;17.10;99.90
44647;DHT22;56315;-33.902;151.160;2023-04-07T12:29:40;17.10;99.90
44647;DHT22;56315;-33.902;151.160;2023-04-07T12:32:09;17.10;99.90
44647;DHT22;56315;-33.902;151.160;2023-04-07T12:34:36;17.00;99.90
44647;DHT22;56315;-33.902;151.160;2023-04-07T12:37:04;17.00;99.90
44647;DHT22;56315;-33.902;151.160;2023-04-07T12:39:32;16.90;99.90
44647;DHT22;56315;-33.902;151.160;2023-04-07T12:41:59;16.90;99.90
44647;DHT22;56315;-33.902;151.160;2023-04-07T12:44:27;16.80;99.90
44647;DHT22;56315;-33.902;151.160;2023-04-07T12:46:54;16.80;99.90
44647;DHT22;56315;-33.902;151.160;2023-04-07T12:49:21;16.80;99.90
44647;DHT22;56315;-33.902;151.160;2023-04-07T12:51:49;16.80;99.90
44647;DHT22;56315;-33.902;151.160;2023-04-07T12:54:17;16.80;99.90
44647;DHT22;56315;-33.902;151.160;2023-04-07T12:56:44;16.80;99.90
44647;DHT22;56315;-33.902;151.160;2023-04-07T12:59:12;16.70;99.90
44647;DHT22;56315;-33.902;151.160;2023-04-07T13:01:39;16.70;99.90
44647;DHT22;56315;-33.902;151.160;2023-04-07T13:04:07;16.60;99.90
44647;DHT22;56315;-33.902;151.160;2023-04-07T13:06:35;16.60;99.90
44647;DHT22;56315;-33.902;151.160;2023-04-07T13:09:02;16.50;99.90
44647;DHT22;56315;-33.902;151.160;2023-04-07T13:11:29;16.50;99.90
44647;DHT22;56315;-33.902;151.160;2023-04-07T13:13:57;16.50;99.90
44647;DHT22;56315;-33.902;151.160;2023-04-07T13:16:24;16.40;99.90
44647;DHT22;56315;-33.902;151.160;2023-04-07T13:18:51;16.40;99.90
44647;DHT22;56315;-33.902;151.160;2023-04-07T13:21:18;16.30;99.90
44647;DHT22;56315;-33.902;151.160;2023-04-07T13:23:47;16.30;99.90
44647;DHT22;56315;-33.902;151.160;2023-04-07T13:26:15;16.20;99.90
44647;DHT22;56315;-33.902;151.160;2023-04-07T13:28:43;16.20;99.90
44647;DHT22;56315;-33.902;151.160;2023-04-07T13:31:11;16.10;99.90
44647;DHT22;56315;-33.902;151.160;2023-04-07T13:33:41;16.00;99.90
44647;DHT22;56315;-33.902;151.160;2023-04-07T13:36:08;16.00;99.90
44647;DHT22;56315;-33.902;151.160;2023-04-07T13:38:36;15.90;99.90
44647;DHT22;56315;-33.902;151.160;2023-04-07T13:41:03;15.90;99.90
44647;DHT22;56315;-33.902;151.160;2023-04-07T13:43:30;15.80;99.90
44647;DHT22;56315;-33.902;151.160;2023-04-07T13:45:59;15.80;99.90
44647;DHT22;56315;-33.902;151.160;2023-04-07T13:48:26;15.80;99.90
44647;DHT22;56315;-33.902;151.160;2023-04-07T13:50:53;15.80;99.90
44647;DHT22;56315;-33.902;151.160;2023-04-07T13:53:21;15.70;99.90
44647;DHT22;56315;-33.902;151.160;2023-04-07T13:55:48;15.70;99.90
44647;DHT22;56315;-33.902;151.160;2023-04-07T13:58:16;15.70;99.90
44647;DHT22;56315;-33.902;151.160;2023-04-07T14:00:44;15.60;99.90
44647;DHT22;56315;-33.902;151.160;2023-04-07T14:03:11;15.60;99.90
44647;DHT22;56315;-33.902;151.160;2023-04-07T14:05:38;15.60;99.90
44647;DHT22;56315;-33.902;151.160;2023-04-07T14:08:06;15.60;99.90
44647;DHT22;56315;-33.902;151.160;2023-04-07T14:10:33;15.60;99.90
44647;DHT22;56315;-33.902;151.160;2023-04-07T14:13:01;15.60;99.90
44647;DHT22;56315;-33.902;151.160;2023-04-07T14:15:28;15.60;99.90
44647;DHT22;56315;-33.902;151.160;2023-04-07T14:17:56;15.60;99.90
44647;DHT22;56315;-33.902;151.160;2023-04-07T14:20:23;15.50;99.90
44647;DHT22;56315;-33.902;151.160;2023-04-07T14:22:50;15.50;99.90
44647;DHT22;56315;-33.902;151.160;2023-04-07T14:25:17;15.50;99.90
44647;DHT22;56315;-33.902;151.160;2023-04-07T14:27:45;15.40;99.90
44647;DHT22;56315;-33.902;151.160;2023-04-07T14:30:12;15.40;99.90
44647;DHT22;56315;-33.902;151.160;2023-04-07T14:32:39;15.40;99.90
44647;DHT22;56315;-33.902;151.160;2023-04-07T14:35:07;15.30;99.90
44647;DHT22;56315;-33.902;151.160;2023-04-07T14:37:34;15.30;99.90
44647;DHT22;56315;-33.902;151.160;2023-04-07T14:40:05;15.20;99.90
44647;DHT22;56315;-33.902;151.160;2023-04-07T14:42:33;15.20;99.90
44647;DHT22;56315;-33.902;151.160;2023-04-07T14:45:01;15.20;99.90
44647;DHT22;56315;-33.902;151.160;2023-04-07T14:47:28;15.10;99.90
44647;DHT22;56315;-33.902;151.160;2023-04-07T14:49:55;15.10;99.90
44647;DHT22;56315;-33.902;151.160;2023-04-07T14:52:23;15.10;99.90
44647;DHT22;56315;-33.902;151.160;2023-04-07T14:54:50;15.10;99.90
44647;DHT22;56315;-33.902;151.160;2023-04-07T14:57:17;15.10;99.90
44647;DHT22;56315;-33.902;151.160;2023-04-07T14:59:45;15.00;99.90
44647;DHT22;56315;-33.902;151.160;2023-04-07T15:02:13;15.00;99.90
44647;DHT22;56315;-33.902;151.160;2023-04-07T15:04:40;15.00;99.90
44647;DHT22;56315;-33.902;151.160;2023-04-07T15:07:07;15.00;99.90
44647;DHT22;56315;-33.902;151.160;2023-04-07T15:09:34;15.00;99.90
44647;DHT22;56315;-33.902;151.160;2023-04-07T15:12:02;14.90;99.90
44647;DHT22;56315;-33.902;151.160;2023-04-07T15:14:30;14.90;99.90
44647;DHT22;56315;-33.902;151.160;2023-04-07T15:16:57;14.80;99.90